createdAt,value
2018-12-04T00:01:01.796Z,10.80
2018-12-04T00:03:30.373Z,10.70
2018-12-04T00:08:59.348Z,10.80
2018-12-04T00:11:27.635Z,10.90
2018-12-04T00:13:55.971Z,10.80
2018-12-04T00:19:25.315Z,10.90
2018-12-04T00:21:54.253Z,10.90
2018-12-04T00:24:22.754Z,10.90
2018-12-04T00:29:52.013Z,10.80
2018-12-04T00:32:20.298Z,10.80
2018-12-04T00:34:48.631Z,10.80
2018-12-04T00:40:18.632Z,10.80
2018-12-04T00:42:48.107Z,10.80
2018-12-04T00:45:17.127Z,10.80
2018-12-04T00:50:38.450Z,10.90
2018-12-04T00:53:08.878Z,10.80
2018-12-04T00:55:52.638Z,10.70
2018-12-04T00:58:21.300Z,10.90
2018-12-04T01:00:49.576Z,10.80
2018-12-04T01:03:18.082Z,10.90
2018-12-04T01:08:47.339Z,10.60
2018-12-04T01:11:15.856Z,10.70
2018-12-04T01:13:44.201Z,10.60
2018-12-04T01:19:12.875Z,10.40
2018-12-04T01:21:41.282Z,10.60
2018-12-04T01:24:10.047Z,10.60
2018-12-04T01:29:38.935Z,10.50
2018-12-04T01:32:07.693Z,10.70
2018-12-04T01:34:35.944Z,10.80
2018-12-04T01:40:05.184Z,11.00
2018-12-04T01:42:33.386Z,11.20
2018-12-04T01:45:02.277Z,11.00
2018-12-04T03:45:39.106Z,10.80
2018-12-04T03:48:08.193Z,11.00
2018-12-04T03:50:36.439Z,11.10
2018-12-04T03:53:04.669Z,11.20
2018-12-04T03:58:34.048Z,11.10
2018-12-04T04:01:02.441Z,11.00
2018-12-04T04:03:31.245Z,10.90
2018-12-04T04:09:01.353Z,11.00
2018-12-04T04:11:29.684Z,11.10
2018-12-04T04:13:57.913Z,11.20
2018-12-04T04:19:26.869Z,11.30
2018-12-04T04:21:55.189Z,11.20
2018-12-04T04:24:24.309Z,11.20
2018-12-04T04:29:54.291Z,10.90
2018-12-04T04:32:22.761Z,11.00
2018-12-04T04:34:51.125Z,11.20
2018-12-04T04:43:12.780Z,10.60
2018-12-04T04:45:41.040Z,10.60
2018-12-04T04:48:10.688Z,10.80
2018-12-04T04:53:39.925Z,10.70
2018-12-04T04:56:09.061Z,10.60
2018-12-04T04:58:38.028Z,10.70
2018-12-04T05:01:07.735Z,11.00
2018-12-04T05:03:36.046Z,11.00
2018-12-04T05:06:16.437Z,11.00
2018-12-04T05:08:46.830Z,11.10
2018-12-04T05:11:19.026Z,11.00
2018-12-04T05:13:50.536Z,10.90
2018-12-04T05:16:25.206Z,10.50
2018-12-04T05:19:00.171Z,10.60
2018-12-04T05:21:34.154Z,10.60
2018-12-04T05:24:11.476Z,10.50
2018-12-04T05:26:46.199Z,10.60
2018-12-04T05:29:26.721Z,10.70
2018-12-04T05:32:01.977Z,10.90
2018-12-04T05:34:36.011Z,10.90
2018-12-04T05:37:05.920Z,11.10
2018-12-04T05:39:41.709Z,11.00
2018-12-04T05:42:15.307Z,11.00
2018-12-04T05:47:18.605Z,10.80
2018-12-04T05:49:52.459Z,11.10
2018-12-04T05:52:25.230Z,11.00
2018-12-04T05:55:05.526Z,10.70
2018-12-04T05:57:39.963Z,10.80
2018-12-04T06:03:04.635Z,11.10
2018-12-04T06:05:37.685Z,11.30
2018-12-04T06:08:09.793Z,11.40
2018-12-04T06:10:43.728Z,11.40
2018-12-04T06:13:17.895Z,11.30
2018-12-04T06:15:52.445Z,11.40
2018-12-04T06:18:26.568Z,11.40
2018-12-04T06:21:00.696Z,11.60
2018-12-04T06:23:32.482Z,11.20
2018-12-04T06:26:06.347Z,11.00
2018-12-04T06:28:38.903Z,11.10
2018-12-04T06:34:08.191Z,11.00
2018-12-04T06:36:36.472Z,11.00
2018-12-04T06:39:07.293Z,11.20
2018-12-04T06:44:36.111Z,11.70
2018-12-04T06:47:04.364Z,11.30
2018-12-04T06:52:25.903Z,11.30
2018-12-04T06:54:54.501Z,11.20
2018-12-04T06:57:22.880Z,11.30
2018-12-04T07:02:51.960Z,11.80
2018-12-04T07:05:20.328Z,11.80
2018-12-04T07:07:48.594Z,11.70
2018-12-04T07:13:19.254Z,11.50
2018-12-04T07:15:47.532Z,11.60
2018-12-04T07:18:15.898Z,11.90
2018-12-04T07:23:37.892Z,11.50
2018-12-04T07:26:06.140Z,11.30
2018-12-04T07:28:34.411Z,11.20
2018-12-04T07:33:57.393Z,11.20
2018-12-04T07:36:25.651Z,11.00
2018-12-04T07:38:54.147Z,11.10
2018-12-04T07:44:24.188Z,11.20
2018-12-04T07:46:53.285Z,10.90
2018-12-04T07:49:28.502Z,11.00
2018-12-04T07:52:00.579Z,11.00
2018-12-04T07:54:32.857Z,10.90
2018-12-04T07:57:07.021Z,11.30
2018-12-04T07:59:47.524Z,11.30
2018-12-04T08:02:19.006Z,11.10
2018-12-04T08:04:48.616Z,11.40
2018-12-04T08:07:22.517Z,11.30
2018-12-04T08:09:54.743Z,11.40
2018-12-04T08:12:26.083Z,11.60
2018-12-04T08:15:03.901Z,11.20
2018-12-04T08:17:35.523Z,11.10
2018-12-04T08:20:09.355Z,11.50
2018-12-04T08:22:41.073Z,11.60
2018-12-04T08:25:15.444Z,11.50
2018-12-04T08:27:47.664Z,11.70
2018-12-04T08:30:22.173Z,11.90
2018-12-04T08:32:50.437Z,12.10
2018-12-04T08:35:18.719Z,12.20
2018-12-04T08:37:48.008Z,12.30
2018-12-04T08:43:14.328Z,12.80
2018-12-04T08:45:42.676Z,13.10
2018-12-04T08:48:10.982Z,13.10
2018-12-04T08:53:33.601Z,12.70
2018-12-04T08:56:07.439Z,12.70
2018-12-04T08:58:42.440Z,12.50
2018-12-04T09:01:10.737Z,12.60
2018-12-04T09:06:37.028Z,12.40
2018-12-04T09:09:09.673Z,12.20
2018-12-04T09:20:24.501Z,11.30
2018-12-04T09:22:53.331Z,11.40
2018-12-04T09:25:21.912Z,11.40
2018-12-04T09:30:43.424Z,11.30
2018-12-04T09:33:11.659Z,11.10
2018-12-04T09:41:32.974Z,10.90
2018-12-04T09:44:01.977Z,10.80
2018-12-04T11:53:11.250Z,12.40
2018-12-04T11:55:41.016Z,12.40
2018-12-04T12:01:05.804Z,12.20
2018-12-04T12:03:40.275Z,11.90
2018-12-04T12:06:14.818Z,11.50
2018-12-04T12:08:48.881Z,11.60
2018-12-04T12:11:20.828Z,11.80
2018-12-04T12:13:53.226Z,11.80
2018-12-04T12:16:26.899Z,11.40
2018-12-04T12:19:01.913Z,11.40
2018-12-04T12:21:34.216Z,11.30
2018-12-04T12:24:04.306Z,11.50
2018-12-04T12:26:35.988Z,11.40
2018-12-04T12:29:07.542Z,11.30
2018-12-04T12:31:39.703Z,11.30
2018-12-04T12:34:11.483Z,11.60
2018-12-04T12:36:42.158Z,11.90
2018-12-04T12:39:22.741Z,12.10
2018-12-04T12:41:50.993Z,12.10
2018-12-04T12:47:19.672Z,12.00
2018-12-04T12:49:48.013Z,11.60
2018-12-04T12:52:16.791Z,11.40
2018-12-04T12:57:46.285Z,11.40
2018-12-04T13:00:14.522Z,11.00
2018-12-04T13:02:42.770Z,11.30
2018-12-04T13:08:11.685Z,11.20
2018-12-04T13:10:40.130Z,11.30
2018-12-04T13:13:08.870Z,11.50
2018-12-04T13:15:41.163Z,11.70
2018-12-04T13:18:19.206Z,12.10
2018-12-04T13:20:53.928Z,12.20
2018-12-04T13:23:27.985Z,12.40
2018-12-04T13:26:04.746Z,12.20
2018-12-04T13:28:37.313Z,12.40
2018-12-04T13:31:09.266Z,12.40
2018-12-04T13:33:43.007Z,12.10
2018-12-04T13:36:15.673Z,12.00
2018-12-04T13:38:51.666Z,12.20
2018-12-04T13:41:23.679Z,11.70
2018-12-04T13:44:01.941Z,11.90
2018-12-04T13:46:36.218Z,11.90
2018-12-04T13:49:11.617Z,11.60
2018-12-04T13:51:43.996Z,11.60
2018-12-04T13:54:31.071Z,11.40
2018-12-04T13:57:03.126Z,11.70
2018-12-04T13:59:37.340Z,11.80
2018-12-04T14:02:11.220Z,11.90
2018-12-04T14:04:45.794Z,12.00
2018-12-04T14:07:18.835Z,12.00
2018-12-04T14:09:52.614Z,12.00
2018-12-04T14:12:24.745Z,12.20
2018-12-04T14:14:55.771Z,12.40
2018-12-04T14:17:29.645Z,12.40
2018-12-04T14:20:04.177Z,12.40
2018-12-04T14:22:36.250Z,12.40
2018-12-04T14:25:16.310Z,12.20
2018-12-04T14:27:52.097Z,12.40
2018-12-04T14:30:24.740Z,12.50
2018-12-04T14:32:53.219Z,12.50
2018-12-04T14:47:39.606Z,12.70
2018-12-04T14:50:09.163Z,12.80
2018-12-04T14:52:38.248Z,12.80
2018-12-04T16:15:45.390Z,9.30
2018-12-04T16:18:16.976Z,9.20
2018-12-04T16:20:48.718Z,9.20
2018-12-04T16:23:22.895Z,9.20
2018-12-04T16:25:54.978Z,9.10
2018-12-04T16:28:28.734Z,9.10
2018-12-04T16:30:58.517Z,9.00
2018-12-04T16:33:32.513Z,9.00
2018-12-04T16:36:02.573Z,8.80
2018-12-04T16:38:34.685Z,8.90
2018-12-04T16:41:06.254Z,8.80
2018-12-04T16:43:38.248Z,8.90
2018-12-04T16:46:12.861Z,8.70
2018-12-04T16:48:44.662Z,8.70
2018-12-04T16:51:14.599Z,8.70
2018-12-04T16:53:48.407Z,8.60
2018-12-04T16:56:20.320Z,8.70
2018-12-04T16:58:54.592Z,8.50
2018-12-04T17:01:25.984Z,8.40
2018-12-04T17:03:55.545Z,8.30
2018-12-04T17:06:27.090Z,8.30
2018-12-04T17:09:01.062Z,8.40
2018-12-04T17:11:29.863Z,8.30
2018-12-04T17:13:58.809Z,8.30
2018-12-04T17:33:49.522Z,8.00
2018-12-04T17:36:21.564Z,8.00
2018-12-04T17:38:53.981Z,8.10
2018-12-04T17:41:24.170Z,8.20
2018-12-04T17:43:58.521Z,8.20
2018-12-04T17:46:30.791Z,8.30
2018-12-04T17:49:03.140Z,8.30
2018-12-04T17:51:35.413Z,8.20
2018-12-04T17:54:10.141Z,8.10
2018-12-04T17:56:41.829Z,8.00
2018-12-04T17:59:13.240Z,8.00
2018-12-04T18:01:47.337Z,7.90
2018-12-04T18:04:21.652Z,7.90
2018-12-04T18:06:53.852Z,7.90
2018-12-04T18:09:27.966Z,7.90
2018-12-04T18:11:57.691Z,7.80
2018-12-04T18:14:29.105Z,7.80
2018-12-04T18:17:02.973Z,7.90
2018-12-04T18:19:37.017Z,7.80
2018-12-04T18:22:09.113Z,7.90
2018-12-04T18:24:41.357Z,7.90
2018-12-04T18:27:15.912Z,7.90
2018-12-04T18:29:47.955Z,7.90
2018-12-04T18:32:20.213Z,7.90
2018-12-04T18:34:48.477Z,8.00
2018-12-04T18:40:09.910Z,7.70
2018-12-04T18:42:38.537Z,7.60
2018-12-04T18:45:08.261Z,7.60
2018-12-04T18:50:29.336Z,7.50
2018-12-04T18:52:57.645Z,7.50
2018-12-04T18:58:26.794Z,7.50
2018-12-04T19:00:55.789Z,7.40
2018-12-04T19:03:24.704Z,7.50
2018-12-04T19:08:53.359Z,7.50
2018-12-04T19:11:21.737Z,7.40
2018-12-04T19:13:50.241Z,7.30
2018-12-04T19:19:11.115Z,7.30
2018-12-04T19:21:40.603Z,7.30
2018-12-04T19:24:09.882Z,7.40
2018-12-04T19:29:39.181Z,7.20
2018-12-04T19:32:07.616Z,7.20
2018-12-04T19:34:36.194Z,7.20
2018-12-04T19:40:06.299Z,7.10
2018-12-04T19:42:34.668Z,7.00
2018-12-04T19:45:04.105Z,7.00
2018-12-04T19:50:33.026Z,7.00
2018-12-04T19:53:01.871Z,7.00
2018-12-04T19:55:30.882Z,6.90
2018-12-04T19:58:06.554Z,7.00
2018-12-04T20:00:34.854Z,7.00
2018-12-04T20:03:04.008Z,7.00
2018-12-04T20:05:33.259Z,7.00
2018-12-04T20:11:02.883Z,7.00
2018-12-04T20:13:31.577Z,6.90
2018-12-04T20:19:00.693Z,6.90
2018-12-04T20:21:29.059Z,6.80
2018-12-04T20:23:57.395Z,6.80
2018-12-04T20:29:26.554Z,6.80
2018-12-04T20:31:55.281Z,6.80
2018-12-04T20:34:23.878Z,6.80
2018-12-04T20:39:53.184Z,6.90
2018-12-04T20:42:23.388Z,6.90
2018-12-04T20:44:52.072Z,6.80
2018-12-04T20:50:21.209Z,6.80
2018-12-04T20:52:49.569Z,6.70
2018-12-04T20:55:17.968Z,6.70
2018-12-04T21:00:39.492Z,6.80
2018-12-04T21:03:07.965Z,6.70
2018-12-04T21:05:36.298Z,6.70
2018-12-04T21:11:05.692Z,6.70
2018-12-04T21:13:34.128Z,6.60
2018-12-04T21:16:09.283Z,6.60
2018-12-04T21:18:43.256Z,6.60
2018-12-04T21:21:15.762Z,6.60
2018-12-04T21:23:47.018Z,6.50
2018-12-04T21:29:14.084Z,6.50
2018-12-04T21:31:47.901Z,6.30
2018-12-04T21:34:21.576Z,6.30
2018-12-04T21:37:01.388Z,6.30
2018-12-04T21:39:35.714Z,6.20
2018-12-04T21:42:13.211Z,6.20
2018-12-04T21:44:50.655Z,6.20
2018-12-04T21:47:27.913Z,6.10
2018-12-04T21:53:01.200Z,6.10
2018-12-04T21:55:40.653Z,6.10
2018-12-04T21:58:12.954Z,6.10
2018-12-04T22:06:37.849Z,6.00
2018-12-04T22:09:10.643Z,6.00
2018-12-04T22:11:40.645Z,6.00
2018-12-04T22:14:14.330Z,6.00
2018-12-04T22:16:44.363Z,6.10
2018-12-04T22:19:16.731Z,6.00
2018-12-04T22:21:50.963Z,6.00
2018-12-04T22:24:25.136Z,6.00
2018-12-04T22:26:59.601Z,6.00
2018-12-04T22:29:32.532Z,6.00
2018-12-04T22:32:06.684Z,6.00
2018-12-04T22:34:39.136Z,6.00
2018-12-04T22:40:06.444Z,6.10
2018-12-04T22:42:38.498Z,6.00
2018-12-04T22:48:03.683Z,6.10
2018-12-04T22:50:37.696Z,6.00
2018-12-04T22:53:12.005Z,6.00
2018-12-04T22:55:43.837Z,6.00
2018-12-04T22:58:24.112Z,6.00
2018-12-04T23:00:56.438Z,6.00
2018-12-04T23:03:27.905Z,6.00
2018-12-04T23:05:56.243Z,6.00
2018-12-04T23:11:26.618Z,6.00
2018-12-04T23:13:56.368Z,5.90
2018-12-04T23:19:25.462Z,5.60
2018-12-04T23:21:57.552Z,5.70
2018-12-04T23:24:28.966Z,5.80
2018-12-04T23:27:00.574Z,5.90
2018-12-04T23:29:35.746Z,5.90
2018-12-04T23:32:05.668Z,6.00
2018-12-04T23:34:40.675Z,6.10
2018-12-04T23:39:48.092Z,6.00
2018-12-04T23:42:19.920Z,6.00
2018-12-04T23:44:52.005Z,6.00
2018-12-04T23:47:23.397Z,5.90
2018-12-04T23:49:57.807Z,5.90
2018-12-04T23:52:29.715Z,5.90
2018-12-04T23:55:01.339Z,5.80
2018-12-04T23:57:30.258Z,5.90
